createdAt,value
2024-04-15T00:01:45.378Z,56.26
2024-04-15T00:04:14.405Z,56.51
2024-04-15T00:06:41.598Z,56.49
2024-04-15T00:09:08.678Z,56.37
2024-04-15T00:11:35.766Z,56.29
2024-04-15T00:14:03.194Z,56.04
2024-04-15T00:16:30.608Z,56.38
2024-04-15T00:18:57.763Z,56.49
2024-04-15T00:21:24.892Z,56.54
2024-04-15T00:23:51.957Z,56.48
2024-04-15T00:26:19.132Z,56.91
2024-04-15T00:28:47.039Z,56.14
2024-04-15T00:31:14.210Z,55.16
2024-04-15T00:33:41.303Z,53.37
2024-04-15T00:36:08.337Z,52.05
2024-04-15T00:38:35.377Z,50.79
2024-04-15T00:41:02.363Z,50.33
2024-04-15T00:43:29.371Z,49.95
2024-04-15T00:45:56.511Z,50.99
2024-04-15T00:48:23.467Z,51.39
2024-04-15T00:50:50.658Z,53.18
2024-04-15T00:53:19.759Z,53.47
2024-04-15T00:55:47.793Z,54.06
2024-04-15T00:58:15.021Z,53.33
2024-04-15T01:00:42.230Z,52.54
2024-04-15T01:03:09.350Z,52.44
2024-04-15T01:05:36.662Z,52.13
2024-04-15T01:08:04.062Z,52.25
2024-04-15T01:10:38.638Z,51.99
2024-04-15T01:13:13.789Z,51.93
2024-04-15T01:15:40.883Z,52.00
2024-04-15T01:18:08.087Z,52.15
2024-04-15T01:20:35.191Z,52.09
2024-04-15T01:23:06.467Z,52.59
2024-04-15T01:25:33.531Z,52.91
2024-04-15T01:28:00.882Z,53.17
2024-04-15T01:30:27.980Z,53.42
2024-04-15T01:32:54.976Z,53.82
2024-04-15T01:35:22.011Z,53.74
2024-04-15T01:37:50.169Z,53.58
2024-04-15T01:40:17.393Z,53.58
2024-04-15T01:42:44.586Z,53.61
2024-04-15T01:45:11.945Z,54.43
2024-04-15T01:47:39.238Z,54.78
2024-04-15T01:50:06.612Z,54.76
2024-04-15T01:52:33.660Z,55.05
2024-04-15T01:55:00.776Z,54.70
2024-04-15T01:57:27.936Z,55.81
2024-04-15T01:59:55.098Z,55.94
2024-04-15T02:02:22.154Z,55.81
2024-04-15T02:04:49.385Z,55.87
2024-04-15T02:07:16.637Z,56.19
2024-04-15T02:09:43.702Z,56.59
2024-04-15T02:12:10.668Z,56.93
2024-04-15T02:14:37.637Z,56.43
2024-04-15T02:17:04.633Z,56.48
2024-04-15T02:19:32.102Z,55.91
2024-04-15T02:21:59.846Z,55.81
2024-04-15T02:24:28.526Z,55.96
2024-04-15T02:26:56.125Z,55.76
2024-04-15T02:29:23.295Z,55.76
2024-04-15T02:31:51.231Z,55.50
2024-04-15T02:34:18.462Z,55.84
2024-04-15T02:36:45.816Z,55.98
2024-04-15T02:39:13.397Z,56.72
2024-04-15T02:41:40.648Z,56.88
2024-04-15T02:44:07.897Z,56.74
2024-04-15T02:46:35.091Z,56.47
2024-04-15T02:49:02.119Z,56.86
2024-04-15T02:51:32.035Z,57.60
2024-04-15T02:53:59.295Z,57.48
2024-04-15T02:56:27.474Z,56.98
2024-04-15T02:58:54.671Z,57.23
2024-04-15T03:01:21.857Z,57.65
2024-04-15T03:03:49.195Z,58.20
2024-04-15T03:06:20.367Z,58.45
2024-04-15T03:08:47.731Z,58.37
2024-04-15T03:11:14.879Z,58.13
2024-04-15T03:13:42.047Z,58.75
2024-04-15T03:16:16.512Z,58.92
2024-04-15T03:18:49.821Z,59.13
2024-04-15T03:21:17.157Z,58.97
2024-04-15T03:23:45.922Z,58.48
2024-04-15T03:26:13.018Z,58.11
2024-04-15T03:28:40.182Z,57.89
2024-04-15T03:31:07.931Z,57.89
2024-04-15T03:33:35.135Z,57.79
2024-04-15T03:36:02.289Z,57.73
2024-04-15T03:38:29.508Z,58.08
2024-04-15T03:40:57.348Z,58.30
2024-04-15T03:43:26.505Z,59.08
2024-04-15T03:45:53.618Z,59.26
2024-04-15T03:48:20.704Z,60.23
2024-04-15T03:50:47.859Z,61.38
2024-04-15T03:53:14.960Z,61.49
2024-04-15T03:55:42.026Z,61.34
2024-04-15T03:58:09.374Z,60.98
2024-04-15T04:00:36.616Z,61.09
2024-04-15T04:03:04.011Z,60.94
2024-04-15T04:05:31.336Z,60.49
2024-04-15T04:07:58.524Z,60.01
2024-04-15T04:10:26.214Z,59.66
2024-04-15T04:12:53.905Z,59.34
2024-04-15T04:15:21.368Z,59.44
2024-04-15T04:17:48.869Z,59.25
2024-04-15T04:20:16.270Z,59.52
2024-04-15T04:22:43.369Z,59.36
2024-04-15T04:25:10.699Z,59.21
2024-04-15T04:27:38.029Z,59.07
2024-04-15T04:30:06.366Z,58.87
2024-04-15T04:32:33.692Z,58.58
2024-04-15T04:35:01.248Z,58.59
2024-04-15T04:37:28.867Z,58.16
2024-04-15T04:39:56.510Z,58.24
2024-04-15T04:42:23.635Z,58.02
2024-04-15T04:44:56.862Z,57.69
2024-04-15T04:47:24.201Z,57.31
2024-04-15T04:49:54.746Z,56.86
2024-04-15T04:52:21.948Z,56.47
2024-04-15T04:54:49.951Z,56.29
2024-04-15T04:57:17.654Z,56.11
2024-04-15T04:59:45.435Z,56.04
2024-04-15T05:02:13.443Z,55.44
2024-04-15T05:04:40.860Z,55.20
2024-04-15T05:07:08.051Z,54.80
2024-04-15T05:09:35.286Z,54.58
2024-04-15T05:12:02.779Z,54.19
2024-04-15T05:14:30.100Z,54.20
2024-04-15T05:16:57.189Z,54.05
2024-04-15T05:19:24.261Z,53.22
2024-04-15T05:21:51.414Z,52.77
2024-04-15T05:24:18.705Z,52.72
2024-04-15T05:26:45.667Z,53.07
2024-04-15T05:29:12.828Z,52.92
2024-04-15T05:31:40.154Z,51.38
2024-04-15T05:34:07.975Z,51.54
2024-04-15T05:36:35.291Z,51.53
2024-04-15T05:39:03.322Z,51.17
2024-04-15T05:41:30.668Z,49.87
2024-04-15T05:43:57.741Z,49.58
2024-04-15T05:46:24.959Z,49.02
2024-04-15T05:48:52.125Z,48.73
2024-04-15T05:51:20.933Z,48.42
2024-04-15T05:53:48.168Z,48.16
2024-04-15T05:56:15.886Z,48.34
2024-04-15T05:58:43.376Z,48.45
2024-04-15T06:01:10.725Z,47.94
2024-04-15T06:03:38.584Z,47.50
2024-04-15T06:06:06.127Z,47.44
2024-04-15T06:08:33.452Z,47.48
2024-04-15T06:11:00.819Z,47.42
2024-04-15T06:13:27.696Z,47.73
2024-04-15T06:15:54.580Z,48.16
2024-04-15T06:18:21.388Z,48.64
2024-04-15T06:20:49.530Z,48.95
2024-04-15T06:23:16.878Z,47.98
2024-04-15T06:25:43.928Z,47.87
2024-04-15T06:28:10.877Z,48.30
2024-04-15T06:30:39.306Z,48.91
2024-04-15T06:33:13.013Z,49.11
2024-04-15T06:35:48.660Z,49.89
2024-04-15T06:38:16.772Z,50.36
2024-04-15T06:40:44.236Z,50.30
2024-04-15T06:43:11.654Z,49.34
2024-04-15T06:45:39.477Z,48.08
2024-04-15T06:48:07.603Z,47.03
2024-04-15T06:50:35.429Z,46.65
2024-04-15T06:53:04.826Z,46.35
2024-04-15T06:55:33.457Z,46.78
2024-04-15T06:58:01.143Z,47.12
2024-04-15T07:00:28.373Z,47.79
2024-04-15T07:02:55.824Z,48.02
2024-04-15T07:05:23.185Z,48.02
2024-04-15T07:07:50.449Z,47.61
2024-04-15T07:10:17.740Z,47.18
2024-04-15T07:12:45.684Z,46.31
2024-04-15T07:15:13.045Z,45.60
2024-04-15T07:17:41.579Z,45.62
2024-04-15T07:20:09.317Z,45.50
2024-04-15T07:22:36.683Z,45.27
2024-04-15T07:25:04.602Z,45.27
2024-04-15T07:27:36.733Z,45.23
2024-04-15T07:30:04.627Z,45.00
2024-04-15T07:32:34.500Z,44.92
2024-04-15T07:35:02.053Z,44.78
2024-04-15T07:37:29.548Z,44.59
2024-04-15T07:42:32.250Z,43.53
2024-04-15T07:45:08.015Z,43.28
2024-04-15T07:47:35.780Z,42.13
2024-04-15T07:50:03.770Z,41.02
2024-04-15T07:52:31.233Z,40.50
2024-04-15T07:54:58.624Z,40.17
2024-04-15T07:57:25.979Z,40.13
2024-04-15T07:59:53.431Z,39.93
2024-04-15T08:02:21.676Z,40.10
2024-04-15T08:04:50.078Z,40.18
2024-04-15T08:07:17.456Z,39.31
2024-04-15T08:09:45.623Z,39.54
2024-04-15T08:12:13.876Z,39.61
2024-04-15T08:14:41.358Z,39.58
2024-04-15T08:17:08.905Z,39.61
2024-04-15T08:19:37.820Z,39.35
2024-04-15T08:22:05.324Z,39.28
2024-04-15T08:24:32.669Z,38.35
2024-04-15T08:27:00.108Z,37.95
2024-04-15T08:29:28.934Z,37.70
2024-04-15T08:32:01.888Z,37.69
2024-04-15T08:37:14.923Z,35.87
2024-04-15T08:39:43.097Z,36.19
2024-04-15T08:42:19.852Z,35.93
2024-04-15T08:44:49.284Z,34.97
2024-04-15T08:47:32.176Z,34.86
2024-04-15T08:49:59.853Z,34.52
2024-04-15T08:52:27.180Z,34.28
2024-04-15T08:54:54.136Z,33.96
2024-04-15T08:57:21.104Z,33.88
2024-04-15T08:59:48.020Z,34.28
2024-04-15T09:02:17.707Z,34.10
2024-04-15T09:04:45.007Z,34.44
2024-04-15T09:07:12.092Z,33.95
2024-04-15T09:09:39.106Z,33.54
2024-04-15T09:12:07.749Z,33.32
2024-04-15T09:14:38.286Z,33.28
2024-04-15T09:17:06.774Z,33.34
2024-04-15T09:19:34.022Z,33.79
2024-04-15T09:22:01.805Z,33.67
2024-04-15T09:24:29.638Z,33.67
2024-04-15T09:26:56.502Z,33.11
2024-04-15T09:29:23.498Z,33.04
2024-04-15T09:31:50.526Z,33.22
2024-04-15T09:34:18.107Z,33.15
2024-04-15T09:36:57.813Z,32.99
2024-04-15T09:39:25.120Z,33.07
2024-04-15T09:41:54.477Z,32.70
2024-04-15T09:44:21.771Z,32.49
2024-04-15T09:46:48.928Z,32.51
2024-04-15T09:49:16.272Z,32.35
2024-04-15T09:51:43.440Z,32.20
2024-04-15T09:54:11.315Z,32.20
2024-04-15T09:56:48.451Z,32.26
2024-04-15T09:59:15.977Z,32.13
2024-04-15T10:01:43.880Z,32.31
2024-04-15T10:04:25.001Z,32.32
2024-04-15T10:06:59.747Z,32.11
2024-04-15T10:09:26.727Z,31.90
2024-04-15T10:11:53.736Z,32.10
2024-04-15T10:14:20.997Z,32.27
2024-04-15T10:16:48.645Z,32.11
2024-04-15T10:19:28.158Z,32.20
2024-04-15T10:21:55.986Z,32.14
2024-04-15T10:24:23.319Z,32.23
2024-04-15T10:26:50.119Z,31.97
2024-04-15T10:29:22.137Z,31.91
2024-04-15T10:31:53.225Z,31.80
2024-04-15T10:34:22.551Z,31.82
2024-04-15T10:36:50.269Z,31.85
2024-04-15T10:39:17.774Z,32.18
2024-04-15T10:41:45.425Z,31.22
2024-04-15T10:44:12.515Z,30.45
2024-04-15T10:46:46.143Z,30.40
2024-04-15T10:49:13.913Z,30.15
2024-04-15T10:51:41.754Z,29.87
2024-04-15T10:54:09.792Z,29.39
2024-04-15T10:56:37.061Z,29.56
2024-04-15T10:59:04.211Z,29.08
2024-04-15T11:01:31.054Z,29.02
2024-04-15T11:04:06.140Z,28.40
2024-04-15T11:06:34.478Z,27.78
2024-04-15T11:09:01.341Z,27.27
2024-04-15T11:11:28.345Z,26.50
2024-04-15T11:13:55.859Z,26.84
2024-04-15T11:16:23.145Z,26.86
2024-04-15T11:18:51.898Z,26.51
2024-04-15T11:21:19.419Z,26.39
2024-04-15T11:23:46.354Z,26.25
2024-04-15T11:26:14.180Z,26.09
2024-04-15T11:28:41.966Z,26.43
2024-04-15T11:31:09.006Z,26.57
2024-04-15T11:33:36.251Z,26.81
2024-04-15T11:36:03.737Z,27.29
2024-04-15T11:38:31.404Z,27.29
2024-04-15T11:40:58.625Z,27.40
2024-04-15T11:43:26.055Z,27.66
2024-04-15T11:45:54.952Z,27.88
2024-04-15T11:48:23.304Z,27.84
2024-04-15T11:50:50.580Z,27.58
2024-04-15T11:53:24.860Z,27.67
2024-04-15T11:55:55.664Z,27.20
2024-04-15T11:58:23.609Z,26.87
2024-04-15T12:00:52.743Z,27.14
2024-04-15T12:03:23.139Z,26.50
2024-04-15T12:05:54.886Z,26.84
2024-04-15T12:08:25.952Z,26.72
2024-04-15T12:10:53.315Z,26.63
2024-04-15T12:13:20.764Z,26.53
2024-04-15T12:15:47.890Z,26.47
2024-04-15T12:18:15.334Z,26.53
2024-04-15T12:20:43.365Z,26.33
2024-04-15T12:23:10.846Z,26.46
2024-04-15T12:25:38.090Z,26.30
2024-04-15T12:28:05.691Z,25.72
2024-04-15T12:30:33.296Z,25.74
2024-04-15T12:33:01.599Z,25.55
2024-04-15T12:35:28.716Z,25.64
2024-04-15T12:37:56.059Z,25.12
2024-04-15T12:40:23.605Z,24.51
2024-04-15T12:42:50.829Z,24.14
2024-04-15T12:45:20.797Z,24.20
2024-04-15T12:47:47.894Z,24.32
2024-04-15T12:50:15.170Z,23.96
2024-04-15T12:52:42.745Z,24.22
2024-04-15T12:55:10.625Z,24.57
2024-04-15T12:57:39.836Z,24.99
2024-04-15T13:00:07.612Z,24.81
2024-04-15T13:02:37.162Z,23.95
2024-04-15T13:05:04.787Z,23.58
2024-04-15T13:07:31.980Z,23.07
2024-04-15T13:09:59.076Z,23.57
2024-04-15T13:12:26.548Z,23.92
2024-04-15T13:14:53.447Z,24.06
2024-04-15T13:17:20.446Z,24.30
2024-04-15T13:19:47.881Z,24.64
2024-04-15T13:22:15.229Z,24.61
2024-04-15T13:24:42.261Z,24.69
2024-04-15T13:27:09.440Z,24.25
2024-04-15T13:29:36.585Z,24.34
2024-04-15T13:32:13.516Z,24.55
2024-04-15T13:34:45.225Z,24.21
2024-04-15T13:37:14.015Z,24.52
2024-04-15T13:39:42.120Z,24.76
2024-04-15T13:42:10.851Z,24.51
2024-04-15T13:44:38.090Z,24.41
2024-04-15T13:47:05.497Z,24.73
2024-04-15T13:49:32.543Z,24.68
2024-04-15T13:52:01.733Z,24.88
2024-04-15T13:54:29.298Z,25.18
2024-04-15T13:56:56.933Z,25.32
2024-04-15T13:59:24.382Z,25.42
2024-04-15T14:01:51.189Z,25.30
2024-04-15T14:04:18.340Z,25.48
2024-04-15T14:06:45.275Z,25.36
2024-04-15T14:09:14.872Z,25.03
2024-04-15T14:11:42.071Z,24.88
2024-04-15T14:14:09.393Z,24.73
2024-04-15T14:16:36.249Z,24.66
2024-04-15T14:19:03.634Z,24.63
2024-04-15T14:21:30.688Z,24.10
2024-04-15T14:23:58.609Z,24.14
2024-04-15T14:26:26.198Z,24.27
2024-04-15T14:28:53.319Z,24.41
2024-04-15T14:31:20.757Z,24.70
2024-04-15T14:33:48.132Z,24.87
2024-04-15T14:36:15.920Z,25.14
2024-04-15T14:38:45.883Z,24.95
2024-04-15T14:41:13.141Z,25.23
2024-04-15T14:43:40.237Z,25.40
2024-04-15T14:46:07.240Z,25.43
2024-04-15T14:48:34.281Z,25.39
2024-04-15T14:51:01.630Z,25.31
2024-04-15T14:53:30.604Z,25.69
2024-04-15T14:55:57.922Z,25.56
2024-04-15T14:58:24.970Z,25.41
2024-04-15T15:00:52.009Z,25.39
2024-04-15T15:03:19.130Z,25.51
2024-04-15T15:05:46.264Z,25.43
2024-04-15T15:08:13.270Z,25.27
2024-04-15T15:10:40.266Z,25.12
2024-04-15T15:13:07.322Z,24.33
2024-04-15T15:15:35.016Z,24.07
2024-04-15T15:18:02.201Z,23.83
2024-04-15T15:20:29.123Z,23.77
2024-04-15T15:22:56.289Z,23.65
2024-04-15T15:25:24.425Z,23.66
2024-04-15T15:27:52.784Z,23.69
2024-04-15T15:30:22.914Z,23.79
2024-04-15T15:32:50.873Z,23.72
2024-04-15T15:35:18.474Z,23.91
2024-04-15T15:37:45.643Z,24.04
2024-04-15T15:40:13.238Z,24.27
2024-04-15T15:42:40.388Z,24.29
2024-04-15T15:45:07.811Z,24.15
2024-04-15T15:47:35.442Z,24.20
2024-04-15T15:50:03.253Z,24.43
2024-04-15T15:52:30.322Z,24.81
2024-04-15T15:54:58.367Z,25.10
2024-04-15T15:57:26.568Z,25.28
2024-04-15T15:59:56.076Z,25.38
2024-04-15T16:02:30.442Z,25.49
2024-04-15T16:05:04.299Z,25.96
2024-04-15T16:07:31.316Z,26.02
2024-04-15T16:09:58.647Z,26.12
2024-04-15T16:12:26.126Z,26.41
2024-04-15T16:14:53.287Z,26.39
2024-04-15T16:17:20.406Z,26.63
2024-04-15T16:19:47.644Z,26.97
2024-04-15T16:22:14.680Z,27.21
2024-04-15T16:24:43.263Z,27.50
2024-04-15T16:27:13.405Z,27.81
2024-04-15T16:29:40.792Z,27.86
2024-04-15T16:32:10.893Z,28.00
2024-04-15T16:34:39.473Z,28.27
2024-04-15T16:37:09.092Z,28.47
2024-04-15T16:39:36.387Z,28.75
2024-04-15T16:42:04.325Z,29.15
2024-04-15T16:44:31.253Z,29.52
2024-04-15T16:46:58.497Z,30.12
2024-04-15T16:49:31.828Z,30.47
2024-04-15T16:51:59.196Z,30.67
2024-04-15T16:54:26.198Z,31.41
2024-04-15T16:56:53.618Z,31.62
2024-04-15T16:59:20.896Z,32.19
2024-04-15T17:01:47.901Z,32.56
2024-04-15T17:04:14.981Z,33.03
2024-04-15T17:06:42.550Z,33.11
2024-04-15T17:09:09.643Z,33.59
2024-04-15T17:11:37.012Z,33.80
2024-04-15T17:14:04.082Z,34.07
2024-04-15T17:16:31.341Z,34.11
2024-04-15T17:18:58.511Z,34.14
2024-04-15T17:21:25.653Z,34.14
2024-04-15T17:23:52.658Z,33.88
2024-04-15T17:26:19.619Z,33.68
2024-04-15T17:28:46.610Z,33.62
2024-04-15T17:31:13.791Z,33.55
2024-04-15T17:33:40.958Z,33.64
2024-04-15T17:36:08.267Z,33.60
2024-04-15T17:38:35.274Z,33.53
2024-04-15T17:41:02.837Z,33.50
2024-04-15T17:43:30.731Z,33.58
2024-04-15T17:45:59.390Z,33.57
2024-04-15T17:48:27.045Z,33.57
2024-04-15T17:50:54.092Z,33.56
2024-04-15T17:53:21.104Z,33.57
2024-04-15T17:55:48.915Z,33.65
2024-04-15T17:58:15.970Z,33.68
2024-04-15T18:00:43.103Z,33.80
2024-04-15T18:03:10.174Z,33.81
2024-04-15T18:05:37.388Z,33.82
2024-04-15T18:08:04.703Z,33.81
2024-04-15T18:10:31.993Z,33.81
2024-04-15T18:12:59.406Z,33.84
2024-04-15T18:15:26.686Z,33.91
2024-04-15T18:17:55.067Z,33.97
2024-04-15T18:20:22.244Z,34.15
2024-04-15T18:22:49.448Z,34.43
2024-04-15T18:25:16.503Z,34.57
2024-04-15T18:27:43.923Z,34.61
2024-04-15T18:30:11.630Z,34.72
2024-04-15T18:32:38.931Z,34.70
2024-04-15T18:35:06.140Z,34.76
2024-04-15T18:37:33.278Z,34.96
2024-04-15T18:40:00.511Z,34.96
2024-04-15T18:42:27.923Z,34.98
2024-04-15T18:45:27.994Z,35.12
2024-04-15T18:47:55.043Z,35.25
2024-04-15T18:50:23.874Z,35.14
2024-04-15T18:52:51.280Z,35.23
2024-04-15T18:55:18.289Z,35.27
2024-04-15T18:57:45.432Z,35.29
2024-04-15T19:00:13.225Z,35.25
2024-04-15T19:02:40.394Z,34.79
2024-04-15T19:05:07.563Z,34.71
2024-04-15T19:07:34.778Z,34.50
2024-04-15T19:10:01.856Z,34.31
2024-04-15T19:12:28.911Z,33.87
2024-04-15T19:15:05.982Z,33.62
2024-04-15T19:17:40.744Z,33.56
2024-04-15T19:20:09.126Z,33.37
2024-04-15T19:22:36.287Z,33.32
2024-04-15T19:25:03.832Z,32.80
2024-04-15T19:27:30.885Z,32.30
2024-04-15T19:29:58.085Z,31.77
2024-04-15T19:32:25.306Z,31.59
2024-04-15T19:34:52.525Z,31.35
2024-04-15T19:37:19.692Z,31.13
2024-04-15T19:39:47.235Z,30.95
2024-04-15T19:42:14.239Z,30.85
2024-04-15T19:44:41.322Z,30.88
2024-04-15T19:47:08.326Z,30.56
2024-04-15T19:49:35.423Z,30.75
2024-04-15T19:52:02.443Z,30.48
2024-04-15T19:54:29.429Z,30.63
2024-04-15T19:56:57.095Z,30.51
2024-04-15T19:59:24.130Z,30.49
2024-04-15T20:01:51.634Z,30.60
2024-04-15T20:04:18.637Z,30.68
2024-04-15T20:06:45.630Z,30.75
2024-04-15T20:09:12.767Z,30.74
2024-04-15T20:11:39.640Z,30.76
2024-04-15T20:14:09.386Z,30.80
2024-04-15T20:16:36.814Z,30.82
2024-04-15T20:19:06.366Z,30.85
2024-04-15T20:21:33.884Z,30.97
2024-04-15T20:24:00.879Z,30.89
2024-04-15T20:26:29.736Z,30.94
2024-04-15T20:28:56.684Z,30.97
2024-04-15T20:31:23.663Z,30.82
2024-04-15T20:33:50.966Z,30.69
2024-04-15T20:36:17.857Z,30.65
2024-04-15T20:38:45.023Z,30.49
2024-04-15T20:41:12.369Z,30.71
2024-04-15T20:43:39.639Z,30.80
2024-04-15T20:46:08.343Z,30.93
2024-04-15T20:48:35.445Z,30.87
2024-04-15T20:51:02.518Z,30.95
2024-04-15T20:53:30.531Z,30.78
2024-04-15T20:55:58.013Z,31.02
2024-04-15T20:58:25.148Z,30.89
2024-04-15T21:00:52.143Z,31.01
2024-04-15T21:03:19.414Z,31.24
2024-04-15T21:05:46.590Z,31.19
2024-04-15T21:08:13.561Z,31.16
2024-04-15T21:10:40.734Z,31.24
2024-04-15T21:13:08.202Z,31.46
2024-04-15T21:15:35.082Z,31.45
2024-04-15T21:18:02.074Z,31.35
2024-04-15T21:20:29.724Z,31.55
2024-04-15T21:22:56.702Z,31.59
2024-04-15T21:25:23.698Z,31.61
2024-04-15T21:27:55.778Z,31.46
2024-04-15T21:30:23.324Z,31.10
2024-04-15T21:32:50.389Z,30.92
2024-04-15T21:35:17.315Z,30.98
2024-04-15T21:37:44.480Z,31.38
2024-04-15T21:40:11.842Z,31.76
2024-04-15T21:42:38.974Z,32.13
2024-04-15T21:47:52.495Z,32.51
2024-04-15T21:50:19.698Z,32.69
2024-04-15T21:52:46.670Z,32.85
2024-04-15T21:55:13.766Z,33.04
2024-04-15T21:57:40.833Z,33.19
2024-04-15T22:00:08.192Z,33.28
2024-04-15T22:02:37.833Z,33.92
2024-04-15T22:05:05.044Z,34.03
2024-04-15T22:07:32.421Z,34.39
2024-04-15T22:10:00.371Z,34.18
2024-04-15T22:12:27.359Z,34.30
2024-04-15T22:14:54.406Z,34.97
2024-04-15T22:17:24.942Z,35.06
2024-04-15T22:19:51.964Z,35.50
2024-04-15T22:22:19.483Z,35.78
2024-04-15T22:24:47.973Z,35.98
2024-04-15T22:27:14.975Z,36.51
2024-04-15T22:29:41.982Z,36.59
2024-04-15T22:32:08.925Z,36.83
2024-04-15T22:34:35.915Z,37.49
2024-04-15T22:37:03.010Z,37.01
2024-04-15T22:39:30.117Z,36.14
2024-04-15T22:41:58.390Z,36.12
2024-04-15T22:44:25.267Z,35.70
2024-04-15T22:46:52.239Z,35.55
2024-04-15T22:49:19.379Z,35.31
2024-04-15T22:51:46.430Z,35.46
2024-04-15T22:54:13.412Z,36.38
2024-04-15T22:56:40.406Z,36.97
2024-04-15T22:59:07.402Z,38.47
2024-04-15T23:01:34.470Z,40.20
2024-04-15T23:04:01.600Z,41.00
2024-04-15T23:06:28.837Z,41.02
2024-04-15T23:08:55.823Z,42.21
2024-04-15T23:11:22.792Z,43.06
2024-04-15T23:13:49.895Z,44.23
2024-04-15T23:16:17.105Z,44.47
2024-04-15T23:18:44.561Z,44.45
2024-04-15T23:21:11.480Z,46.22
2024-04-15T23:23:39.103Z,47.01
2024-04-15T23:26:05.989Z,48.73
2024-04-15T23:28:33.286Z,49.47
2024-04-15T23:31:01.438Z,49.78
2024-04-15T23:33:28.557Z,50.83
2024-04-15T23:35:55.924Z,52.04
2024-04-15T23:38:22.819Z,52.93
2024-04-15T23:40:49.878Z,52.22
2024-04-15T23:43:16.885Z,53.32
2024-04-15T23:46:02.734Z,53.89
2024-04-15T23:48:48.610Z,53.84
2024-04-15T23:51:34.093Z,55.40
2024-04-15T23:54:20.261Z,55.10
2024-04-15T23:57:05.714Z,55.40
2024-04-15T23:59:32.659Z,56.14
